createdAt,value
2023-05-03T00:00:10.363Z,76.23
2023-05-03T00:02:44.546Z,75.98
2023-05-03T00:05:12.981Z,77.34
2023-05-03T00:07:42.401Z,77.44
2023-05-03T00:10:12.784Z,77.77
2023-05-03T00:12:40.698Z,75.93
2023-05-03T00:15:08.977Z,75.16
2023-05-03T00:17:37.074Z,75.21
2023-05-03T00:20:05.107Z,79.73
2023-05-03T00:22:32.856Z,77.87
2023-05-03T00:25:00.354Z,77.30
2023-05-03T00:27:28.126Z,78.67
2023-05-03T00:29:55.976Z,76.70
2023-05-03T00:32:23.504Z,76.34
2023-05-03T00:34:57.304Z,80.89
2023-05-03T00:37:25.082Z,78.04
2023-05-03T00:39:52.717Z,78.13
2023-05-03T00:42:20.057Z,79.41
2023-05-03T00:44:47.778Z,78.15
2023-05-03T00:47:15.804Z,78.03
2023-05-03T00:49:43.180Z,77.62
2023-05-03T00:52:10.832Z,78.48
2023-05-03T00:54:38.237Z,79.73
2023-05-03T00:57:05.854Z,76.87
2023-05-03T00:59:34.581Z,76.32
2023-05-03T01:02:02.119Z,78.13
2023-05-03T01:04:29.638Z,77.46
2023-05-03T01:07:18.781Z,79.47
2023-05-03T01:10:21.727Z,77.87
2023-05-03T01:13:11.038Z,77.69
2023-05-03T01:15:46.365Z,77.20
2023-05-03T01:18:16.594Z,76.03
2023-05-03T01:20:46.218Z,78.51
2023-05-03T01:23:18.719Z,78.54
2023-05-03T01:25:46.115Z,77.63
2023-05-03T01:28:13.761Z,77.63
2023-05-03T01:30:41.869Z,77.30
2023-05-03T01:33:24.499Z,76.88
2023-05-03T01:35:55.050Z,77.35
2023-05-03T01:38:22.412Z,76.81
2023-05-03T01:40:52.685Z,75.19
2023-05-03T01:43:20.734Z,77.31
2023-05-03T01:45:48.185Z,76.43
2023-05-03T01:48:16.922Z,77.18
2023-05-03T01:50:44.760Z,77.67
2023-05-03T01:53:12.230Z,78.24
2023-05-03T01:55:39.933Z,77.02
2023-05-03T01:58:07.562Z,76.27
2023-05-03T02:00:34.924Z,75.56
2023-05-03T02:03:02.609Z,75.38
2023-05-03T02:05:30.024Z,75.31
2023-05-03T02:07:57.360Z,74.24
2023-05-03T02:10:25.389Z,72.88
2023-05-03T02:12:56.001Z,73.52
2023-05-03T02:15:23.354Z,75.80
2023-05-03T02:17:51.249Z,73.28
2023-05-03T02:20:18.729Z,75.63
2023-05-03T02:22:46.114Z,75.53
2023-05-03T02:25:13.722Z,76.23
2023-05-03T02:27:41.395Z,76.85
2023-05-03T02:30:09.090Z,74.75
2023-05-03T02:32:38.170Z,74.30
2023-05-03T02:35:06.573Z,75.58
2023-05-03T02:37:34.026Z,73.87
2023-05-03T02:40:02.879Z,72.75
2023-05-03T02:42:30.837Z,73.82
2023-05-03T02:44:58.346Z,73.23
2023-05-03T02:47:26.466Z,72.18
2023-05-03T02:49:53.952Z,73.68
2023-05-03T02:52:21.278Z,72.67
2023-05-03T02:54:49.643Z,75.10
2023-05-03T02:57:17.519Z,74.01
2023-05-03T02:59:44.867Z,72.99
2023-05-03T03:02:12.538Z,75.11
2023-05-03T03:04:39.869Z,75.22
2023-05-03T03:07:07.304Z,75.04
2023-05-03T03:09:36.019Z,73.73
2023-05-03T03:12:03.827Z,72.52
2023-05-03T03:14:32.755Z,72.93
2023-05-03T03:17:01.106Z,72.15
2023-05-03T03:19:28.797Z,71.70
2023-05-03T03:21:56.291Z,72.75
2023-05-03T03:24:25.250Z,72.02
2023-05-03T03:26:53.518Z,73.73
2023-05-03T03:29:20.910Z,75.02
2023-05-03T03:31:48.896Z,75.37
2023-05-03T03:34:16.724Z,75.31
2023-05-03T03:36:44.161Z,74.77
2023-05-03T03:39:11.863Z,73.87
2023-05-03T03:41:39.449Z,72.46
2023-05-03T03:44:07.095Z,71.44
2023-05-03T03:46:34.887Z,72.47
2023-05-03T03:49:02.361Z,73.12
2023-05-03T03:51:31.238Z,72.71
2023-05-03T03:53:59.168Z,72.15
2023-05-03T03:56:27.528Z,72.60
2023-05-03T03:58:56.398Z,76.03
2023-05-03T04:01:25.069Z,74.99
2023-05-03T04:03:53.186Z,73.37
2023-05-03T04:06:20.983Z,74.34
2023-05-03T04:08:49.450Z,74.82
2023-05-03T04:11:17.611Z,74.62
2023-05-03T04:13:45.199Z,76.93
2023-05-03T04:16:12.587Z,74.15
2023-05-03T04:18:41.311Z,73.98
2023-05-03T04:21:08.982Z,76.49
2023-05-03T04:23:36.342Z,75.01
2023-05-03T04:26:05.251Z,75.06
2023-05-03T04:28:34.013Z,73.97
2023-05-03T04:31:01.426Z,73.76
2023-05-03T04:33:31.131Z,75.83
2023-05-03T04:36:00.368Z,76.81
2023-05-03T04:38:28.237Z,75.31
2023-05-03T04:40:58.306Z,75.15
2023-05-03T04:43:26.189Z,74.85
2023-05-03T04:45:54.537Z,74.76
2023-05-03T04:48:22.307Z,74.64
2023-05-03T04:50:49.754Z,73.45
2023-05-03T04:53:17.820Z,74.46
2023-05-03T04:55:47.498Z,73.59
2023-05-03T04:58:14.935Z,73.22
2023-05-03T05:00:42.863Z,73.63
2023-05-03T05:03:11.819Z,73.93
2023-05-03T05:05:39.802Z,74.13
2023-05-03T05:08:07.624Z,72.93
2023-05-03T05:10:41.015Z,71.74
2023-05-03T05:13:09.104Z,71.11
2023-05-03T05:15:37.449Z,73.01
2023-05-03T05:18:05.174Z,70.84
2023-05-03T05:20:32.894Z,70.32
2023-05-03T05:23:01.616Z,71.34
2023-05-03T05:25:29.310Z,69.43
2023-05-03T05:27:57.365Z,69.83
2023-05-03T05:30:25.730Z,69.98
2023-05-03T05:32:53.410Z,68.73
2023-05-03T05:35:21.053Z,68.67
2023-05-03T05:37:48.805Z,71.55
2023-05-03T05:40:16.391Z,70.15
2023-05-03T05:42:46.228Z,69.96
2023-05-03T05:45:14.014Z,67.94
2023-05-03T05:47:41.860Z,69.17
2023-05-03T05:50:15.274Z,67.44
2023-05-03T05:52:46.214Z,67.82
2023-05-03T05:55:15.800Z,66.26
2023-05-03T05:57:44.208Z,66.83
2023-05-03T06:00:15.565Z,66.68
2023-05-03T06:02:44.698Z,66.18
2023-05-03T06:05:12.453Z,66.33
2023-05-03T06:07:40.672Z,65.55
2023-05-03T06:10:08.542Z,65.30
2023-05-03T06:12:36.961Z,66.18
2023-05-03T06:15:07.006Z,64.94
2023-05-03T06:17:36.080Z,64.61
2023-05-03T06:20:04.914Z,64.47
2023-05-03T06:22:32.643Z,63.67
2023-05-03T06:25:00.392Z,66.11
2023-05-03T06:27:28.076Z,65.09
2023-05-03T06:29:56.123Z,64.21
2023-05-03T06:32:23.956Z,63.08
2023-05-03T06:34:52.948Z,62.27
2023-05-03T06:37:20.463Z,62.37
2023-05-03T06:39:49.787Z,60.54
2023-05-03T06:42:19.800Z,61.67
2023-05-03T06:44:48.250Z,62.22
2023-05-03T06:47:15.975Z,62.15
2023-05-03T06:49:43.358Z,60.46
2023-05-03T06:52:11.900Z,62.11
2023-05-03T06:54:40.420Z,62.39
2023-05-03T06:57:07.792Z,62.18
2023-05-03T06:59:35.155Z,62.76
2023-05-03T07:02:02.920Z,62.28
2023-05-03T07:04:30.409Z,62.23
2023-05-03T07:06:57.825Z,63.43
2023-05-03T07:09:35.433Z,65.54
2023-05-03T07:12:10.031Z,62.97
2023-05-03T07:14:38.969Z,64.13
2023-05-03T07:17:06.353Z,64.93
2023-05-03T07:19:33.701Z,62.28
2023-05-03T07:22:03.344Z,61.58
2023-05-03T07:24:30.734Z,63.56
2023-05-03T07:26:58.402Z,61.38
2023-05-03T07:29:27.317Z,60.77
2023-05-03T07:31:54.911Z,60.55
2023-05-03T07:34:22.331Z,57.21
2023-05-03T07:36:50.004Z,53.72
2023-05-03T07:39:17.535Z,53.83
2023-05-03T07:41:45.014Z,54.60
2023-05-03T07:44:12.808Z,54.06
2023-05-03T07:46:40.504Z,49.37
2023-05-03T07:49:07.919Z,44.12
2023-05-03T07:51:36.327Z,40.77
2023-05-03T07:54:04.296Z,37.09
2023-05-03T07:56:31.687Z,34.58
2023-05-03T07:59:08.607Z,34.02
2023-05-03T08:01:38.052Z,36.20
2023-05-03T08:04:06.007Z,40.02
2023-05-03T08:06:35.590Z,42.09
2023-05-03T08:09:04.704Z,43.03
2023-05-03T08:11:32.691Z,43.46
2023-05-03T08:14:00.053Z,41.84
2023-05-03T08:16:27.755Z,43.02
2023-05-03T08:18:55.435Z,45.23
2023-05-03T08:21:24.847Z,42.20
2023-05-03T08:23:52.277Z,41.17
2023-05-03T08:26:22.142Z,41.08
2023-05-03T08:28:49.828Z,40.57
2023-05-03T08:31:17.694Z,41.41
2023-05-03T08:33:45.708Z,41.73
2023-05-03T08:36:13.089Z,42.47
2023-05-03T08:38:43.490Z,42.06
2023-05-03T08:41:42.965Z,43.43
2023-05-03T08:44:12.267Z,46.02
2023-05-03T08:46:40.447Z,44.80
2023-05-03T08:49:07.876Z,44.16
2023-05-03T08:51:36.068Z,44.44
2023-05-03T08:54:03.859Z,44.22
2023-05-03T08:56:39.477Z,43.96
2023-05-03T08:59:10.290Z,44.88
2023-05-03T09:01:38.323Z,45.24
2023-05-03T09:04:06.332Z,46.14
2023-05-03T09:06:34.403Z,48.88
2023-05-03T09:09:02.141Z,48.14
2023-05-03T09:11:30.839Z,46.43
2023-05-03T09:14:13.339Z,47.77
2023-05-03T09:16:41.603Z,49.94
2023-05-03T09:19:11.583Z,47.61
2023-05-03T09:21:43.458Z,47.31
2023-05-03T09:24:21.088Z,47.20
2023-05-03T09:26:50.521Z,50.04
2023-05-03T09:29:31.576Z,48.92
2023-05-03T09:32:00.609Z,49.52
2023-05-03T09:34:28.287Z,49.54
2023-05-03T09:36:56.324Z,51.66
2023-05-03T09:39:23.684Z,49.77
2023-05-03T09:41:51.327Z,49.16
2023-05-03T09:44:18.709Z,48.74
2023-05-03T09:47:05.468Z,52.34
2023-05-03T09:49:33.222Z,49.31
2023-05-03T09:52:03.491Z,52.05
2023-05-03T09:54:35.435Z,51.22
2023-05-03T09:57:04.958Z,50.80
2023-05-03T09:59:33.293Z,49.49
2023-05-03T10:02:03.145Z,50.19
2023-05-03T10:04:44.272Z,49.09
2023-05-03T10:07:13.481Z,47.70
2023-05-03T10:09:45.469Z,48.78
2023-05-03T10:12:13.256Z,48.11
2023-05-03T10:14:42.083Z,48.50
2023-05-03T10:17:17.008Z,48.34
2023-05-03T10:19:51.799Z,48.52
2023-05-03T10:22:19.216Z,47.87
2023-05-03T10:25:02.605Z,50.69
2023-05-03T10:27:44.178Z,51.57
2023-05-03T10:30:34.651Z,53.01
2023-05-03T10:33:14.479Z,53.96
2023-05-03T10:35:43.769Z,52.32
2023-05-03T10:38:22.431Z,51.42
2023-05-03T10:40:50.252Z,51.87
2023-05-03T10:43:29.949Z,52.28
2023-05-03T10:46:00.963Z,54.93
2023-05-03T10:48:28.755Z,53.68
2023-05-03T10:50:56.563Z,54.56
2023-05-03T10:53:44.993Z,52.14
2023-05-03T10:56:13.666Z,51.72
2023-05-03T10:58:43.743Z,52.96
2023-05-03T11:01:15.279Z,55.53
2023-05-03T11:03:48.886Z,55.76
2023-05-03T11:06:41.269Z,54.93
2023-05-03T11:09:09.825Z,58.04
2023-05-03T11:11:39.262Z,56.66
2023-05-03T11:14:08.229Z,55.72
2023-05-03T11:16:36.741Z,54.50
2023-05-03T11:19:04.191Z,55.84
2023-05-03T11:21:32.057Z,55.42
2023-05-03T11:23:59.807Z,54.66
2023-05-03T11:26:27.598Z,54.91
2023-05-03T11:28:55.013Z,53.66
2023-05-03T11:31:23.025Z,53.69
2023-05-03T11:33:51.072Z,54.39
2023-05-03T11:36:18.480Z,56.45
2023-05-03T11:38:46.276Z,56.10
2023-05-03T11:41:14.903Z,58.35
2023-05-03T11:43:43.571Z,56.21
2023-05-03T11:46:11.332Z,56.64
2023-05-03T11:48:39.294Z,55.92
2023-05-03T11:51:07.967Z,56.22
2023-05-03T11:53:36.362Z,55.96
2023-05-03T11:56:03.799Z,55.94
2023-05-03T11:58:32.090Z,57.41
2023-05-03T12:00:59.754Z,56.66
2023-05-03T12:03:37.103Z,56.84
2023-05-03T12:06:06.448Z,57.40
2023-05-03T12:08:37.073Z,57.71
2023-05-03T12:11:06.973Z,59.50
2023-05-03T12:13:38.748Z,58.90
2023-05-03T12:16:11.849Z,61.74
2023-05-03T12:18:56.675Z,61.69
2023-05-03T12:23:57.247Z,63.04
2023-05-03T12:26:26.369Z,61.82
2023-05-03T12:28:56.001Z,60.50
2023-05-03T12:31:24.695Z,63.29
2023-05-03T12:36:26.109Z,64.29
2023-05-03T12:38:56.604Z,64.22
2023-05-03T12:42:04.604Z,63.17
2023-05-03T12:44:17.036Z,64.70
2023-05-03T12:46:45.726Z,65.44
2023-05-03T12:49:15.021Z,64.01
2023-05-03T12:51:43.579Z,64.22
2023-05-03T12:54:12.335Z,62.46
2023-05-03T12:56:41.161Z,62.65
2023-05-03T13:06:46.993Z,63.85
2023-05-03T13:09:20.853Z,62.97
2023-05-03T13:11:50.385Z,62.91
2023-05-03T13:14:21.339Z,63.21
2023-05-03T13:16:49.550Z,63.47
2023-05-03T13:19:17.022Z,61.49
2023-05-03T13:21:44.400Z,61.46
2023-05-03T13:24:12.295Z,60.62
2023-05-03T13:26:39.667Z,62.29
2023-05-03T13:29:07.398Z,61.23
2023-05-03T13:31:35.387Z,60.80
2023-05-03T13:34:02.782Z,60.95
2023-05-03T13:36:30.666Z,63.03
2023-05-03T13:38:59.060Z,62.39
2023-05-03T13:41:26.478Z,61.53
2023-05-03T13:43:53.866Z,63.65
2023-05-03T13:46:21.550Z,63.08
2023-05-03T13:48:49.165Z,61.62
2023-05-03T13:51:16.572Z,61.71
2023-05-03T13:53:44.714Z,60.72
2023-05-03T13:56:12.084Z,60.04
2023-05-03T13:58:39.885Z,58.95
2023-05-03T14:01:08.093Z,57.98
2023-05-03T14:03:35.885Z,60.30
2023-05-03T14:06:03.514Z,61.36
2023-05-03T14:08:30.977Z,61.43
2023-05-03T14:10:58.668Z,60.93
2023-05-03T14:13:27.144Z,63.85
2023-05-03T14:15:55.177Z,62.94
2023-05-03T14:18:22.936Z,60.97
2023-05-03T14:20:50.974Z,62.49
2023-05-03T14:23:18.423Z,63.26
2023-05-03T14:25:46.034Z,62.36
2023-05-03T14:28:13.366Z,63.23
2023-05-03T14:30:40.815Z,62.26
2023-05-03T14:33:10.693Z,62.00
2023-05-03T14:35:38.176Z,62.25
2023-05-03T14:38:06.399Z,63.83
2023-05-03T14:40:34.059Z,61.44
2023-05-03T14:43:01.417Z,62.33
2023-05-03T14:45:28.878Z,63.05
2023-05-03T14:47:56.605Z,62.13
2023-05-03T14:50:23.968Z,63.24
2023-05-03T14:52:51.689Z,63.91
2023-05-03T14:55:19.434Z,64.91
2023-05-03T14:57:47.408Z,63.60
2023-05-03T15:00:17.665Z,63.44
2023-05-03T15:02:45.785Z,66.19
2023-05-03T15:05:13.413Z,63.86
2023-05-03T15:07:40.803Z,64.47
2023-05-03T15:10:08.972Z,63.70
2023-05-03T15:12:36.642Z,65.69
2023-05-03T15:15:05.048Z,66.06
2023-05-03T15:17:32.740Z,65.33
2023-05-03T15:20:00.123Z,67.00
2023-05-03T15:22:27.555Z,65.12
2023-05-03T15:24:55.448Z,66.31
2023-05-03T15:27:22.831Z,66.67
2023-05-03T15:29:50.197Z,68.05
2023-05-03T15:32:17.832Z,66.59
2023-05-03T15:34:45.205Z,65.69
2023-05-03T15:37:13.079Z,66.93
2023-05-03T15:39:40.790Z,65.61
2023-05-03T15:42:08.513Z,68.54
2023-05-03T15:44:36.014Z,67.54
2023-05-03T15:47:03.630Z,68.91
2023-05-03T15:49:31.013Z,66.81
2023-05-03T15:51:58.365Z,67.98
2023-05-03T15:54:26.013Z,65.87
2023-05-03T15:56:53.800Z,65.14
2023-05-03T15:59:21.311Z,65.78
2023-05-03T16:01:49.237Z,64.81
2023-05-03T16:04:17.152Z,67.43
2023-05-03T16:06:44.630Z,67.88
2023-05-03T16:09:12.783Z,68.08
2023-05-03T16:11:40.460Z,69.03
2023-05-03T16:14:09.597Z,70.14
2023-05-03T16:16:38.740Z,68.64
2023-05-03T16:19:07.167Z,68.58
2023-05-03T16:21:34.499Z,70.36
2023-05-03T16:24:01.944Z,70.73
2023-05-03T16:26:29.642Z,69.14
2023-05-03T16:28:57.099Z,69.48
2023-05-03T16:31:24.450Z,70.63
2023-05-03T16:33:52.222Z,72.50
2023-05-03T16:36:19.813Z,70.96
2023-05-03T16:38:47.145Z,70.12
2023-05-03T16:41:14.967Z,71.70
2023-05-03T16:43:42.301Z,70.22
2023-05-03T16:46:09.745Z,70.12
2023-05-03T16:48:37.386Z,70.13
2023-05-03T16:51:04.846Z,71.14
2023-05-03T16:53:32.677Z,71.67
2023-05-03T16:56:00.995Z,73.32
2023-05-03T16:58:28.492Z,69.89
2023-05-03T17:00:56.184Z,70.53
2023-05-03T17:03:24.215Z,72.42
2023-05-03T17:05:52.127Z,70.60
2023-05-03T17:08:19.515Z,70.97
2023-05-03T17:10:47.140Z,71.92
2023-05-03T17:13:15.019Z,71.63
2023-05-03T17:15:42.596Z,69.82
2023-05-03T17:18:10.389Z,71.23
2023-05-03T17:20:39.036Z,72.17
2023-05-03T17:23:06.383Z,70.96
2023-05-03T17:25:34.171Z,73.13
2023-05-03T17:28:01.603Z,73.31
2023-05-03T17:30:29.207Z,73.37
2023-05-03T17:32:57.062Z,73.52
2023-05-03T17:35:24.470Z,72.48
2023-05-03T17:37:51.865Z,72.03
2023-05-03T17:40:19.489Z,72.39
2023-05-03T17:42:47.132Z,72.23
2023-05-03T17:45:14.707Z,73.50
2023-05-03T17:47:42.444Z,72.78
2023-05-03T17:50:11.685Z,72.86
2023-05-03T17:52:39.876Z,75.07
2023-05-03T17:55:08.205Z,74.64
2023-05-03T17:57:37.379Z,75.13
2023-05-03T18:00:06.094Z,74.56
2023-05-03T18:02:34.357Z,75.50
2023-05-03T18:05:02.244Z,73.86
2023-05-03T18:07:29.578Z,74.66
2023-05-03T18:09:57.367Z,73.80
2023-05-03T18:12:24.699Z,73.33
2023-05-03T18:14:59.291Z,72.59
2023-05-03T18:17:27.458Z,74.67
2023-05-03T18:19:55.638Z,75.69
2023-05-03T18:22:23.369Z,73.64
2023-05-03T18:24:54.588Z,71.80
2023-05-03T18:27:22.671Z,72.09
2023-05-03T18:29:50.067Z,71.78
2023-05-03T18:32:17.752Z,73.79
2023-05-03T18:34:45.091Z,72.45
2023-05-03T18:37:14.794Z,77.19
2023-05-03T18:39:42.786Z,79.07
2023-05-03T18:42:10.598Z,76.58
2023-05-03T18:44:39.642Z,77.33
2023-05-03T18:47:09.464Z,79.00
2023-05-03T18:49:37.006Z,80.17
2023-05-03T18:52:05.402Z,78.85
2023-05-03T18:54:33.041Z,78.63
2023-05-03T18:57:01.803Z,76.53
2023-05-03T18:59:29.582Z,78.79
2023-05-03T19:01:57.181Z,79.68
2023-05-03T19:04:24.652Z,76.79
2023-05-03T19:06:52.126Z,75.38
2023-05-03T19:09:20.023Z,75.71
2023-05-03T19:11:49.082Z,74.65
2023-05-03T19:14:16.513Z,73.54
2023-05-03T19:16:44.231Z,73.22
2023-05-03T19:19:13.565Z,73.25
2023-05-03T19:21:42.400Z,74.39
2023-05-03T19:24:14.987Z,74.56
2023-05-03T19:26:42.564Z,74.56
2023-05-03T19:29:10.272Z,74.90
2023-05-03T19:31:37.685Z,74.18
2023-05-03T19:34:05.113Z,74.16
2023-05-03T19:36:32.847Z,76.24
2023-05-03T19:39:00.318Z,77.21
2023-05-03T19:41:27.722Z,74.21
2023-05-03T19:43:55.739Z,75.37
2023-05-03T19:46:23.191Z,74.43
2023-05-03T19:48:50.614Z,74.32
2023-05-03T19:51:18.320Z,73.80
2023-05-03T19:53:48.046Z,73.40
2023-05-03T19:56:16.300Z,73.66
2023-05-03T19:58:43.912Z,75.19
2023-05-03T20:01:11.340Z,74.05
2023-05-03T20:03:39.295Z,73.15
2023-05-03T20:06:06.710Z,74.11
2023-05-03T20:08:35.994Z,73.15
2023-05-03T20:11:03.833Z,72.24
2023-05-03T20:13:31.251Z,76.42
2023-05-03T20:15:58.641Z,72.26
2023-05-03T20:18:26.255Z,71.46
2023-05-03T20:20:53.748Z,69.76
2023-05-03T20:23:21.480Z,69.37
2023-05-03T20:25:49.422Z,69.94
2023-05-03T20:28:16.812Z,68.42
2023-05-03T20:30:44.215Z,68.44
2023-05-03T20:33:12.361Z,66.39
2023-05-03T20:35:39.800Z,65.79
2023-05-03T20:38:07.162Z,65.77
2023-05-03T20:40:34.898Z,66.94
2023-05-03T20:43:02.316Z,66.24
2023-05-03T20:45:29.934Z,65.77
2023-05-03T20:47:57.633Z,66.02
2023-05-03T20:50:25.030Z,65.92
2023-05-03T20:52:52.417Z,65.62
2023-05-03T20:55:20.187Z,65.58
2023-05-03T20:57:47.570Z,66.72
2023-05-03T21:00:18.047Z,67.40
2023-05-03T21:02:46.453Z,66.61
2023-05-03T21:05:13.937Z,67.57
2023-05-03T21:07:41.786Z,67.21
2023-05-03T21:10:09.849Z,67.09
2023-05-03T21:12:37.246Z,67.15
2023-05-03T21:15:05.065Z,65.28
2023-05-03T21:17:32.935Z,64.86
2023-05-03T21:20:00.259Z,66.34
2023-05-03T21:22:27.646Z,66.03
2023-05-03T21:24:55.262Z,68.41
2023-05-03T21:27:22.640Z,68.08
2023-05-03T21:29:50.025Z,68.59
2023-05-03T21:32:17.694Z,67.33
2023-05-03T21:34:45.010Z,67.72
2023-05-03T21:37:12.390Z,68.49
2023-05-03T21:39:40.064Z,67.84
2023-05-03T21:42:07.502Z,67.05
2023-05-03T21:44:35.181Z,67.83
2023-05-03T21:47:03.125Z,66.49
2023-05-03T21:49:30.649Z,66.07
2023-05-03T21:51:58.197Z,66.71
2023-05-03T21:54:26.895Z,67.52
2023-05-03T21:56:54.223Z,66.14
2023-05-03T21:59:21.643Z,65.26
2023-05-03T22:01:49.320Z,67.23
2023-05-03T22:04:16.941Z,67.12
2023-05-03T22:06:44.454Z,66.93
2023-05-03T22:09:11.823Z,66.25
2023-05-03T22:11:39.484Z,67.64
2023-05-03T22:14:08.351Z,67.74
2023-05-03T22:16:37.688Z,69.42
2023-05-03T22:19:05.453Z,69.23
2023-05-03T22:21:32.874Z,70.05
2023-05-03T22:24:00.194Z,68.75
2023-05-03T22:26:27.837Z,68.18
2023-05-03T22:28:55.260Z,68.52
2023-05-03T22:31:22.645Z,68.51
2023-05-03T22:33:50.286Z,70.80
2023-05-03T22:36:17.674Z,68.34
2023-05-03T22:38:45.057Z,69.26
2023-05-03T22:41:12.705Z,68.48
2023-05-03T22:43:40.098Z,68.26
2023-05-03T22:46:07.813Z,71.14
2023-05-03T22:48:35.546Z,71.09
2023-05-03T22:51:02.920Z,70.10
2023-05-03T22:53:30.360Z,70.52
2023-05-03T22:55:58.733Z,72.41
2023-05-03T22:58:26.167Z,70.99
2023-05-03T23:00:53.857Z,70.36
2023-05-03T23:03:22.382Z,69.32
2023-05-03T23:05:51.543Z,71.42
2023-05-03T23:08:18.953Z,70.53
2023-05-03T23:10:46.581Z,69.46
2023-05-03T23:13:13.970Z,70.23
2023-05-03T23:15:41.583Z,70.56
2023-05-03T23:18:09.406Z,73.02
2023-05-03T23:20:37.671Z,69.93
2023-05-03T23:23:05.040Z,71.34
2023-05-03T23:25:32.692Z,70.27
2023-05-03T23:28:00.090Z,69.74
2023-05-03T23:30:28.151Z,72.18
2023-05-03T23:32:56.309Z,71.24
2023-05-03T23:35:24.138Z,73.13
2023-05-03T23:37:51.528Z,74.12
2023-05-03T23:40:19.329Z,74.59
2023-05-03T23:42:46.748Z,72.70
2023-05-03T23:45:14.095Z,70.47
2023-05-03T23:47:41.737Z,73.91
2023-05-03T23:50:09.502Z,72.80
2023-05-03T23:52:37.092Z,71.79
2023-05-03T23:55:05.597Z,72.95
2023-05-03T23:57:32.948Z,70.99
